createdAt,value
2022-10-18T00:04:13.209Z,3.10
2022-10-18T00:09:15.081Z,3.22
2022-10-18T00:14:17.091Z,3.78
2022-10-18T00:19:18.933Z,4.00
2022-10-18T00:24:20.781Z,3.22
2022-10-18T00:29:22.561Z,3.30
2022-10-18T00:34:24.491Z,3.42
2022-10-18T00:39:26.402Z,3.25
2022-10-18T00:44:28.374Z,3.28
2022-10-18T00:49:38.163Z,3.22
2022-10-18T00:54:44.169Z,3.15
2022-10-18T00:59:47.176Z,3.05
2022-10-18T01:04:49.319Z,2.92
2022-10-18T01:10:38.063Z,3.13
2022-10-18T01:16:03.901Z,3.30
2022-10-18T01:21:37.833Z,3.25
2022-10-18T01:27:00.319Z,2.50
2022-10-18T01:32:13.332Z,3.15
2022-10-18T01:37:18.330Z,3.28
2022-10-18T01:42:21.625Z,2.70
2022-10-18T01:47:23.961Z,2.55
2022-10-18T01:52:25.853Z,3.05
2022-10-18T01:57:42.403Z,3.53
2022-10-18T02:02:50.192Z,2.88
2022-10-18T02:08:23.585Z,3.20
2022-10-18T02:13:35.470Z,2.67
2022-10-18T02:18:42.628Z,2.60
2022-10-18T02:23:46.542Z,2.67
2022-10-18T02:28:48.441Z,2.90
2022-10-18T02:34:18.492Z,2.35
2022-10-18T02:39:25.745Z,2.63
2022-10-18T02:44:27.544Z,2.15
2022-10-18T02:49:29.484Z,2.65
2022-10-18T02:54:31.291Z,2.53
2022-10-18T02:59:33.786Z,2.92
2022-10-18T03:04:35.602Z,2.85
2022-10-18T03:09:37.418Z,3.08
2022-10-18T03:14:39.228Z,2.53
2022-10-18T03:19:41.351Z,2.45
2022-10-18T03:24:43.182Z,2.83
2022-10-18T03:29:44.930Z,2.97
2022-10-18T03:34:46.734Z,2.97
2022-10-18T03:39:48.537Z,3.03
2022-10-18T03:44:50.303Z,2.65
2022-10-18T03:49:54.766Z,2.72
2022-10-18T03:54:59.044Z,3.90
2022-10-18T04:00:00.954Z,3.08
2022-10-18T04:05:02.936Z,3.10
2022-10-18T04:10:05.067Z,2.65
2022-10-18T04:15:07.702Z,3.08
2022-10-18T04:20:10.091Z,3.35
2022-10-18T04:25:11.982Z,2.83
2022-10-18T04:30:14.093Z,2.85
2022-10-18T04:35:16.038Z,3.47
2022-10-18T04:40:18.005Z,2.88
2022-10-18T04:45:20.142Z,3.03
2022-10-18T04:50:22.061Z,2.80
2022-10-18T04:55:24.786Z,2.55
2022-10-18T05:00:26.665Z,3.20
2022-10-18T05:05:49.890Z,2.97
2022-10-18T05:10:50.605Z,4.32
2022-10-18T05:15:52.473Z,3.58
2022-10-18T05:20:54.411Z,4.28
2022-10-18T05:26:01.613Z,3.90
2022-10-18T05:31:07.850Z,3.13
2022-10-18T05:36:11.007Z,3.33
2022-10-18T05:41:13.232Z,2.85
2022-10-18T05:46:15.831Z,3.58
2022-10-18T05:51:19.319Z,3.63
2022-10-18T05:56:21.204Z,3.88
2022-10-18T06:01:23.251Z,4.10
2022-10-18T06:06:25.130Z,3.47
2022-10-18T06:11:27.203Z,3.13
2022-10-18T06:16:32.475Z,3.60
2022-10-18T06:21:34.981Z,2.83
2022-10-18T06:26:39.853Z,3.90
2022-10-18T06:31:44.533Z,3.25
2022-10-18T06:36:46.385Z,3.63
2022-10-18T06:41:48.178Z,3.53
2022-10-18T06:46:59.397Z,3.67
2022-10-18T06:52:01.296Z,3.65
2022-10-18T06:57:03.357Z,3.42
2022-10-18T07:02:05.169Z,3.55
2022-10-18T07:07:07.017Z,3.63
2022-10-18T07:12:08.889Z,3.67
2022-10-18T07:17:10.759Z,4.05
2022-10-18T07:22:12.604Z,3.38
2022-10-18T07:27:14.436Z,3.22
2022-10-18T07:32:16.233Z,3.45
2022-10-18T07:37:18.172Z,2.92
2022-10-18T07:42:20.026Z,2.80
2022-10-18T07:47:21.759Z,3.47
2022-10-18T07:52:23.527Z,2.92
2022-10-18T07:57:25.491Z,3.10
2022-10-18T08:02:27.579Z,4.03
2022-10-18T08:07:29.539Z,3.88
2022-10-18T08:12:31.651Z,6.35
2022-10-18T08:17:34.586Z,6.07
2022-10-18T08:22:36.895Z,6.35
2022-10-18T08:27:39.078Z,6.60
2022-10-18T08:32:40.965Z,6.03
2022-10-18T08:37:42.810Z,6.68
2022-10-18T08:42:54.996Z,6.05
2022-10-18T08:47:58.301Z,6.03
2022-10-18T08:53:18.115Z,5.28
2022-10-18T08:58:23.428Z,5.25
2022-10-18T09:04:03.121Z,6.22
2022-10-18T09:09:17.200Z,6.20
2022-10-18T09:15:04.161Z,7.00
2022-10-18T09:20:17.988Z,7.38
2022-10-18T09:25:24.569Z,6.68
2022-10-18T09:30:58.757Z,6.97
2022-10-18T09:36:05.858Z,5.35
2022-10-18T09:41:15.168Z,6.55
2022-10-18T09:46:20.697Z,5.68
2022-10-18T09:51:28.336Z,6.63
2022-10-18T10:01:34.035Z,7.60
2022-10-18T10:06:39.298Z,8.13
2022-10-18T10:11:51.844Z,7.75
2022-10-18T10:17:03.590Z,8.50
2022-10-18T10:22:09.608Z,8.00
2022-10-18T10:27:32.722Z,6.25
2022-10-18T10:32:50.615Z,5.47
2022-10-18T10:37:54.328Z,7.50
2022-10-18T10:43:18.130Z,7.10
2022-10-18T10:48:33.465Z,5.63
2022-10-18T10:59:01.633Z,10.15
2022-10-18T11:09:32.204Z,9.90
2022-10-18T11:14:41.954Z,9.60
2022-10-18T11:19:50.153Z,9.52
2022-10-18T11:24:52.070Z,6.85
2022-10-18T11:30:29.033Z,6.38
2022-10-18T11:35:50.476Z,6.63
2022-10-18T11:41:40.798Z,6.25
2022-10-18T11:47:17.119Z,5.85
2022-10-18T11:52:33.769Z,5.90
2022-10-18T11:57:54.182Z,5.32
2022-10-18T12:03:24.148Z,5.32
2022-10-18T12:08:36.533Z,4.82
2022-10-18T12:13:59.385Z,4.75
2022-10-18T12:19:11.813Z,2.65
2022-10-18T12:24:21.641Z,1.98
2022-10-18T12:29:37.452Z,1.90
2022-10-18T12:34:51.691Z,2.35
2022-10-18T12:40:12.154Z,2.10
2022-10-18T12:45:35.573Z,1.92
2022-10-18T12:50:43.632Z,1.73
2022-10-18T12:55:51.957Z,0.93
2022-10-18T13:00:57.288Z,1.45
2022-10-18T13:06:02.981Z,1.08
2022-10-18T13:11:08.226Z,1.10
2022-10-18T13:16:25.286Z,0.80
2022-10-18T13:21:48.548Z,0.60
2022-10-18T13:27:18.030Z,0.95
2022-10-18T13:32:29.559Z,0.77
2022-10-18T13:37:32.303Z,0.63
2022-10-18T13:42:34.598Z,0.63
2022-10-18T13:47:38.370Z,0.57
2022-10-18T13:53:24.671Z,1.00
2022-10-18T13:58:49.187Z,0.88
2022-10-18T14:04:23.233Z,0.90
2022-10-18T14:09:45.335Z,1.00
2022-10-18T14:14:56.723Z,1.10
2022-10-18T14:20:14.601Z,0.80
2022-10-18T14:30:23.062Z,1.10
2022-10-18T14:35:32.521Z,0.90
2022-10-18T14:40:40.574Z,1.15
2022-10-18T14:45:43.130Z,1.05
2022-10-18T14:50:47.434Z,1.10
2022-10-18T14:56:00.866Z,0.90
2022-10-18T15:01:03.163Z,0.40
2022-10-18T15:06:07.773Z,0.55
2022-10-18T15:11:14.266Z,1.23
2022-10-18T15:16:18.943Z,1.10
2022-10-18T15:21:24.751Z,0.90
2022-10-18T15:26:30.461Z,1.10
2022-10-18T15:31:35.948Z,1.02
2022-10-18T15:36:38.128Z,1.38
2022-10-18T15:41:45.441Z,1.00
2022-10-18T15:46:47.917Z,0.90
2022-10-18T15:51:51.376Z,0.88
2022-10-18T15:56:53.185Z,0.95
2022-10-18T16:01:55.376Z,1.60
2022-10-18T16:06:58.169Z,1.35
2022-10-18T16:11:59.982Z,1.60
2022-10-18T16:17:05.105Z,1.40
2022-10-18T16:22:07.206Z,1.52
2022-10-18T16:27:10.249Z,1.65
2022-10-18T16:32:11.991Z,1.27
2022-10-18T16:37:14.193Z,1.33
2022-10-18T16:42:16.035Z,1.40
2022-10-18T16:47:18.092Z,1.52
2022-10-18T16:52:19.902Z,1.70
2022-10-18T16:57:21.747Z,1.60
2022-10-18T17:02:23.568Z,1.30
2022-10-18T17:07:25.743Z,1.00
2022-10-18T17:12:27.574Z,0.85
2022-10-18T17:17:29.621Z,1.00
2022-10-18T17:22:31.892Z,0.98
2022-10-18T17:27:33.793Z,1.33
2022-10-18T17:32:35.723Z,1.20
2022-10-18T17:37:42.718Z,1.10
2022-10-18T17:42:47.686Z,0.88
2022-10-18T17:47:49.589Z,1.27
2022-10-18T17:52:51.378Z,1.50
2022-10-18T17:57:53.209Z,1.23
2022-10-18T18:03:01.280Z,1.17
2022-10-18T18:08:04.369Z,1.35
2022-10-18T18:13:06.491Z,1.20
2022-10-18T18:18:08.235Z,1.67
2022-10-18T18:23:10.061Z,1.50
2022-10-18T18:28:11.867Z,1.25
2022-10-18T18:33:13.672Z,1.40
2022-10-18T18:38:15.516Z,1.20
2022-10-18T18:43:24.560Z,1.15
2022-10-18T18:48:28.153Z,0.90
2022-10-18T18:53:30.663Z,1.25
2022-10-18T18:58:34.835Z,0.98
2022-10-18T19:03:38.789Z,1.00
2022-10-18T19:08:40.637Z,2.00
2022-10-18T19:13:42.761Z,1.60
2022-10-18T19:18:58.041Z,1.60
2022-10-18T19:24:00.462Z,1.65
2022-10-18T19:29:16.351Z,1.58
2022-10-18T19:34:19.666Z,2.38
2022-10-18T19:39:22.874Z,1.88
2022-10-18T19:44:28.827Z,1.88
2022-10-18T19:49:30.773Z,1.95
2022-10-18T19:54:32.694Z,1.83
2022-10-18T19:59:36.232Z,2.25
2022-10-18T20:04:38.311Z,2.65
2022-10-18T20:09:40.403Z,2.72
2022-10-18T20:14:42.259Z,2.50
2022-10-18T20:19:44.208Z,2.03
2022-10-18T20:24:46.066Z,1.65
2022-10-18T20:29:47.799Z,2.47
2022-10-18T20:34:49.553Z,2.53
2022-10-18T20:39:51.329Z,2.78
2022-10-18T20:44:53.394Z,2.65
2022-10-18T20:49:55.141Z,2.65
2022-10-18T20:54:56.875Z,2.50
2022-10-18T20:59:58.863Z,2.85
2022-10-18T21:05:00.554Z,3.40
2022-10-18T21:10:02.282Z,3.05
2022-10-18T21:15:04.363Z,3.30
2022-10-18T21:20:07.055Z,2.70
2022-10-18T21:25:10.365Z,3.28
2022-10-18T21:35:19.579Z,2.97
2022-10-18T21:40:21.244Z,3.38
2022-10-18T21:45:23.000Z,3.38
2022-10-18T21:50:24.723Z,3.97
2022-10-18T21:55:26.474Z,3.67
2022-10-18T22:00:28.200Z,4.63
2022-10-18T22:05:30.042Z,4.97
2022-10-18T22:10:32.318Z,4.53
2022-10-18T22:15:34.055Z,5.38
2022-10-18T22:20:35.899Z,5.32
2022-10-18T22:25:37.537Z,5.45
2022-10-18T22:30:40.845Z,6.00
2022-10-18T22:35:42.548Z,6.25
2022-10-18T22:40:45.043Z,6.68
2022-10-18T22:45:46.806Z,6.55
2022-10-18T22:50:51.661Z,6.97
2022-10-18T22:55:54.085Z,6.90
2022-10-18T23:01:08.118Z,6.55
2022-10-18T23:06:27.156Z,5.97
2022-10-18T23:11:29.260Z,6.80
2022-10-18T23:16:31.247Z,6.47
2022-10-18T23:21:34.370Z,6.72
2022-10-18T23:26:36.089Z,7.22
2022-10-18T23:31:37.906Z,5.97
2022-10-18T23:36:39.730Z,6.40
2022-10-18T23:41:41.526Z,6.30
2022-10-18T23:46:43.218Z,6.63
2022-10-18T23:51:44.975Z,6.15
2022-10-18T23:56:46.705Z,6.30
